Time;durP1;ratioP1;P1;durP2;ratioP2;P2;SDS_P1;SDS_P2;PMS_P1;PMS_P2;Temp;Humidity;BMP_temperature;BMP_pressure;BME280_temperature;BME280_humidity;BME280_pressure;Samples;Min_cycle;Max_cycle;Signal;HPM_P1;HPM_P2
2022/05/17 00:00:33;;;;;;;8.88;6.53;;;;;;;16.15;58.64;95149.19;5117618;28;20215;-64
2022/05/17 00:03:01;;;;;;;7.75;6.15;;;;;;;16.16;58.53;95152.75;5118729;28;20183;-64
2022/05/17 00:05:28;;;;;;;7.07;6.15;;;;;;;16.15;58.67;95149.19;5118315;28;20595;-64
2022/05/17 00:07:56;;;;;;;8.00;6.07;;;;;;;16.17;58.74;95149.63;5118184;28;20208;-64
2022/05/17 00:10:24;;;;;;;10.40;6.75;;;;;;;16.18;58.58;95153.97;5117530;28;20199;-65
2022/05/17 00:12:51;;;;;;;10.57;8.35;;;;;;;16.12;58.83;95155.53;5118114;28;20221;-65
2022/05/17 00:15:18;;;;;;;10.88;8.18;;;;;;;16.08;59.12;95154.69;5117883;28;20518;-65
2022/05/17 00:17:45;;;;;;;9.05;7.53;;;;;;;16.05;58.76;95149.91;5117466;28;20195;-65
2022/05/17 00:20:14;;;;;;;6.65;6.03;;;;;;;16.05;58.97;95149.91;5117578;28;20190;-65
2022/05/17 00:22:41;;;;;;;8.68;6.50;;;;;;;16.03;58.38;95147.53;5118246;28;20179;-65
2022/05/17 00:25:09;;;;;;;6.05;5.45;;;;;;;16.05;58.28;95152.69;5118094;28;20187;-64
2022/05/17 00:27:36;;;;;;;6.00;5.40;;;;;;;16.05;58.09;95153.50;5117555;28;20200;-65
2022/05/17 00:30:04;;;;;;;5.88;5.32;;;;;;;16.04;58.08;95151.88;5117025;28;20191;-65
2022/05/17 00:32:31;;;;;;;6.78;5.20;;;;;;;16.03;57.60;95149.50;5117936;28;20195;-64
2022/05/17 00:34:58;;;;;;;5.80;5.15;;;;;;;16.01;58.00;95146.31;5117915;28;20199;-64
2022/05/17 00:37:26;;;;;;;6.47;5.32;;;;;;;16.05;57.84;95142.38;5116897;28;20200;-65
2022/05/17 00:39:53;;;;;;;7.35;6.30;;;;;;;16.02;57.85;95151.50;5116981;28;20192;-64
2022/05/17 00:42:21;;;;;;;6.90;6.10;;;;;;;15.89;58.32;95153.75;5116183;28;20235;-64
2022/05/17 00:44:47;;;;;;;7.18;5.85;;;;;;;15.79;58.34;95151.69;5116794;28;20195;-64
2022/05/17 00:47:16;;;;;;;6.30;5.30;;;;;;;15.70;58.63;95145.66;5117063;28;20200;-64
2022/05/17 00:49:46;;;;;;;8.82;6.22;;;;;;;15.63;58.62;95151.13;5116359;28;20199;-64
2022/05/17 00:52:17;;;;;;;6.43;5.45;;;;;;;15.54;58.68;95140.34;5116476;28;20191;-64
2022/05/17 00:54:45;;;;;;;8.10;5.90;;;;;;;15.44;59.29;95146.59;5116680;28;20187;-64
2022/05/17 00:57:15;;;;;;;6.20;5.45;;;;;;;15.38;59.51;95145.34;5116200;28;20200;-64
2022/05/17 00:59:42;;;;;;;7.88;5.63;;;;;;;15.39;59.34;95141.38;5117032;28;20607;-64
2022/05/17 01:02:10;;;;;;;7.97;6.07;;;;;;;15.37;59.47;95138.19;5116362;28;20689;-64
2022/05/17 01:04:37;;;;;;;6.40;5.57;;;;;;;15.37;59.66;95140.97;5116170;28;20200;-65
2022/05/17 01:07:07;;;;;;;6.22;5.55;;;;;;;15.37;59.33;95138.97;5116810;28;20648;-65
2022/05/17 01:09:34;;;;;;;5.90;5.32;;;;;;;15.31;59.49;95136.94;5117072;28;20184;-65
2022/05/17 01:12:02;;;;;;;6.97;5.57;;;;;;;15.24;59.81;95134.88;5116257;28;20188;-65
2022/05/17 01:17:13;;;;;;;5.95;5.38;;;;;;;15.22;60.02;95133.69;5116722;28;20167;-65
2022/05/17 01:19:41;;;;;;;6.07;5.43;;;;;;;15.18;59.85;95122.53;5116957;28;20184;-65
2022/05/17 01:22:09;;;;;;;7.07;5.47;;;;;;;15.18;59.89;95128.09;5116474;28;20204;-65
2022/05/17 01:24:37;;;;;;;7.40;5.30;;;;;;;15.17;59.88;95130.03;5115779;28;20192;-65
2022/05/17 01:27:08;;;;;;;6.10;5.47;;;;;;;15.11;60.43;95117.69;5116125;28;20204;-65
2022/05/17 01:29:39;;;;;;;6.72;5.35;;;;;;;15.08;60.63;95118.44;5115743;28;20191;-65
2022/05/17 01:32:08;;;;;;;6.28;5.50;;;;;;;15.07;60.59;95129.91;5116367;28;20245;-65
2022/05/17 01:34:35;;;;;;;6.50;5.55;;;;;;;15.09;60.36;95133.13;5116593;28;20244;-65
2022/05/17 01:37:02;;;;;;;6.15;5.60;;;;;;;15.03;60.52;95121.56;5116477;28;20180;-65
2022/05/17 01:39:30;;;;;;;7.90;6.15;;;;;;;15.01;60.57;95120.34;5116327;28;20184;-64
2022/05/17 01:41:57;;;;;;;7.47;5.63;;;;;;;14.98;60.55;95133.00;5116235;28;20232;-65
2022/05/17 01:44:24;;;;;;;9.15;5.68;;;;;;;15.02;60.90;95125.50;5115642;28;20206;-65
2022/05/17 01:46:51;;;;;;;8.45;6.13;;;;;;;15.03;60.78;95135.47;5115437;28;20195;-65
2022/05/17 01:49:17;;;;;;;8.55;6.05;;;;;;;14.98;61.04;95124.69;5115661;28;20212;-65
2022/05/17 01:51:44;;;;;;;7.65;6.32;;;;;;;14.92;61.38;95121.47;5115150;28;20191;-65
2022/05/17 01:54:11;;;;;;;7.88;6.90;;;;;;;14.90;60.78;95129.34;5116237;28;20180;-65
2022/05/17 01:56:40;;;;;;;14.27;9.90;;;;;;;14.83;60.96;95136.81;5115615;28;20203;-64
2022/05/17 01:59:06;;;;;;;11.10;9.23;;;;;;;14.80;61.05;95137.56;5115779;28;20526;-64
2022/05/17 02:01:33;;;;;;;12.77;10.93;;;;;;;14.82;60.68;95136.00;5116011;28;20204;-64
2022/05/17 02:04:00;;;;;;;16.35;12.68;;;;;;;14.77;61.22;95135.53;5115338;28;20199;-64
2022/05/17 02:06:27;;;;;;;12.50;11.00;;;;;;;14.71;61.26;95137.84;5115747;28;20180;-64
2022/05/17 02:08:54;;;;;;;13.48;11.02;;;;;;;14.63;61.11;95136.16;5114879;28;20208;-64
2022/05/17 02:11:21;;;;;;;12.85;9.38;;;;;;;14.63;61.09;95133.38;5115371;28;20206;-65
2022/05/17 02:13:49;;;;;;;11.38;9.40;;;;;;;14.61;61.31;95133.75;5098252;28;20196;-65
2022/05/17 02:16:16;;;;;;;11.52;8.65;;;;;;;14.58;61.38;95131.75;5114898;28;20196;-65
2022/05/17 02:18:44;;;;;;;10.32;8.68;;;;;;;14.60;61.46;95137.72;5115632;28;20210;-65
2022/05/17 02:21:11;;;;;;;12.15;9.52;;;;;;;14.60;61.26;95142.47;5115780;28;20204;-65
2022/05/17 02:23:38;;;;;;;12.52;8.45;;;;;;;14.55;61.25;95138.03;5114899;28;20192;-65
2022/05/17 02:26:05;;;;;;;9.48;7.65;;;;;;;14.55;61.65;95142.78;5115063;28;20199;-65
2022/05/17 02:28:32;;;;;;;9.07;7.55;;;;;;;14.53;61.71;95142.38;5114538;28;20198;-65
2022/05/17 02:31:00;;;;;;;9.98;8.18;;;;;;;14.49;61.86;95138.72;5114715;28;20200;-65
2022/05/17 02:33:27;;;;;;;9.70;7.55;;;;;;;14.44;61.92;95139.84;5114633;28;20203;-65
2022/05/17 02:35:55;;;;;;;8.27;6.32;;;;;;;14.43;61.44;95133.50;5114909;28;20199;-65
2022/05/17 02:38:22;;;;;;;10.00;6.82;;;;;;;14.35;61.58;95142.91;5115570;28;20184;-65
2022/05/17 02:40:48;;;;;;;10.45;6.85;;;;;;;14.28;61.68;95142.81;5115038;28;20227;-65
2022/05/17 02:43:15;;;;;;;10.05;6.72;;;;;;;14.23;62.19;95142.31;5118736;28;20222;-65
2022/05/17 02:45:42;;;;;;;8.55;6.45;;;;;;;14.26;62.08;95136.03;5119604;28;20179;-65
2022/05/17 02:48:11;;;;;;;7.72;6.80;;;;;;;14.25;62.28;95132.47;5118944;28;20207;-64
2022/05/17 02:50:38;;;;;;;10.15;7.13;;;;;;;14.28;62.60;95137.25;5118808;28;20505;-64
2022/05/17 02:53:05;;;;;;;10.80;6.55;;;;;;;14.31;62.23;95139.28;5119560;28;20202;-64
2022/05/17 02:55:32;;;;;;;8.90;6.40;;;;;;;14.26;62.24;95139.59;5119005;28;20199;-65
2022/05/17 02:57:59;;;;;;;9.57;6.82;;;;;;;14.23;62.00;95137.56;5119481;28;20198;-65
2022/05/17 03:00:26;;;;;;;7.57;6.45;;;;;;;14.18;62.03;95140.69;5119573;28;20207;-65
2022/05/17 03:02:53;;;;;;;8.23;6.40;;;;;;;14.15;61.88;95135.88;5119152;28;20215;-65
2022/05/17 03:05:22;;;;;;;9.55;7.43;;;;;;;14.14;62.24;95131.50;5119804;28;20192;-65
2022/05/17 03:07:49;;;;;;;10.68;6.60;;;;;;;14.11;62.04;95140.56;5119489;28;20550;-65
2022/05/17 03:10:17;;;;;;;8.95;6.78;;;;;;;14.07;62.42;95134.97;5119331;28;20256;-64
2022/05/17 03:12:44;;;;;;;8.90;6.45;;;;;;;14.08;62.44;95139.34;5119628;28;20184;-65
2022/05/17 03:15:18;;;;;;;10.30;6.95;;;;;;;14.12;62.46;95134.63;5119471;28;20188;-65
2022/05/17 03:17:44;;;;;;;7.35;6.60;;;;;;;14.17;62.57;95139.09;5119063;28;20176;-65
2022/05/17 03:20:11;;;;;;;8.63;6.70;;;;;;;14.19;62.40;95139.50;5119189;28;20211;-65
2022/05/17 03:22:40;;;;;;;9.90;7.00;;;;;;;14.21;62.44;95142.72;5119168;28;20288;-66
2022/05/17 03:25:08;;;;;;;7.97;6.90;;;;;;;14.16;62.43;95141.06;5118369;28;20199;-66
2022/05/17 03:27:36;;;;;;;12.27;6.90;;;;;;;14.11;62.40;95144.13;5118310;28;20207;-65
2022/05/17 03:30:03;;;;;;;11.68;7.18;;;;;;;14.13;62.82;95143.78;5118403;28;20204;-64
2022/05/17 03:32:30;;;;;;;7.63;6.82;;;;;;;14.15;62.59;95145.00;5117850;28;20210;-66
2022/05/17 03:34:57;;;;;;;11.35;7.13;;;;;;;14.18;62.68;95141.47;5117885;28;20200;-63
2022/05/17 03:37:23;;;;;;;12.30;7.75;;;;;;;14.15;62.59;95144.19;5118576;28;20200;-64
2022/05/17 03:39:52;;;;;;;15.07;8.68;;;;;;;14.13;62.45;95141.81;5118364;28;20188;-64
2022/05/17 03:42:19;;;;;;;10.15;8.55;;;;;;;14.10;62.48;95148.09;5117459;28;20231;-64
2022/05/17 03:44:46;;;;;;;11.48;7.88;;;;;;;14.09;62.96;95148.44;5118619;28;20196;-64
2022/05/17 03:47:13;;;;;;;10.45;8.50;;;;;;;14.11;62.79;95155.25;5118800;28;20195;-64
2022/05/17 03:49:40;;;;;;;11.50;7.93;;;;;;;14.15;62.79;95149.75;5117920;28;20252;-64
2022/05/17 03:52:09;;;;;;;10.40;8.57;;;;;;;14.15;63.12;95158.06;5117968;28;20194;-64
2022/05/17 03:54:36;;;;;;;14.18;8.73;;;;;;;14.15;63.09;95158.06;5116696;28;20184;-64
2022/05/17 03:57:06;;;;;;;11.20;8.30;;;;;;;14.15;63.08;95155.28;5117695;28;20211;-64
2022/05/17 03:59:33;;;;;;;16.17;8.35;;;;;;;14.20;62.99;95155.00;5117675;28;20618;-64
2022/05/17 04:02:00;;;;;;;13.23;7.90;;;;;;;14.23;63.50;95156.19;5117633;28;20541;-64
2022/05/17 04:04:27;;;;;;;12.23;8.23;;;;;;;14.24;63.63;95149.50;5118227;28;20180;-65
2022/05/17 04:06:53;;;;;;;13.13;8.35;;;;;;;14.27;63.67;95154.25;5117176;28;20208;-64
2022/05/17 04:09:20;;;;;;;15.68;9.30;;;;;;;14.25;63.76;95149.09;5118527;28;20203;-65
2022/05/17 04:11:47;;;;;;;12.27;9.30;;;;;;;14.28;63.91;95144.78;5117581;28;20195;-65
2022/05/17 04:14:15;;;;;;;12.90;9.02;;;;;;;14.32;63.93;95148.41;5117051;28;20196;-64
2022/05/17 04:16:42;;;;;;;12.30;9.40;;;;;;;14.35;63.92;95148.47;5117520;28;20195;-64
2022/05/17 04:19:09;;;;;;;11.25;8.45;;;;;;;14.40;63.39;95150.09;5117491;28;20206;-65
2022/05/17 04:21:36;;;;;;;8.43;7.55;;;;;;;14.41;63.94;95152.50;5117990;28;20204;-65
2022/05/17 04:24:03;;;;;;;10.77;8.98;;;;;;;14.44;63.92;95157.28;5118009;28;20187;-64
2022/05/17 04:26:30;;;;;;;10.40;8.65;;;;;;;14.46;64.23;95162.47;5117029;28;20196;-65
2022/05/17 04:28:56;;;;;;;10.95;8.98;;;;;;;14.47;64.31;95172.41;5118089;28;20198;-65
2022/05/17 04:31:25;;;;;;;9.88;8.88;;;;;;;14.49;64.01;95169.22;5117925;28;20181;-65
2022/05/17 04:33:52;;;;;;;11.95;9.18;;;;;;;14.49;64.28;95177.56;5116734;28;20207;-64
2022/05/17 04:36:19;;;;;;;13.60;9.25;;;;;;;14.53;64.42;95175.69;5117820;28;20183;-64
2022/05/17 04:38:46;;;;;;;8.52;6.93;;;;;;;14.62;62.82;95176.19;5117757;28;20184;-64
2022/05/17 04:41:13;;;;;;;9.57;6.32;;;;;;;14.74;61.66;95172.38;5117751;28;20267;-64
2022/05/17 04:43:39;;;;;;;12.38;8.80;;;;;;;14.81;61.47;95166.91;5117045;28;20219;-64
2022/05/17 04:46:06;;;;;;;7.70;6.90;;;;;;;14.87;61.54;95170.97;5117615;27;20180;-64
2022/05/17 04:48:35;;;;;;;7.85;6.72;;;;;;;14.92;61.13;95174.22;5116116;28;20203;-64
2022/05/17 04:51:07;;;;;;;7.32;6.50;;;;;;;14.97;61.20;95175.06;5117689;28;20198;-64
2022/05/17 04:53:35;;;;;;;9.20;6.40;;;;;;;14.99;61.96;95173.47;5116596;28;20257;-64
2022/05/17 04:56:02;;;;;;;7.60;6.85;;;;;;;15.04;61.32;95172.38;5117437;28;20195;-64
2022/05/17 04:58:28;;;;;;;8.98;7.13;;;;;;;15.09;60.96;95164.47;5117319;28;20180;-65
2022/05/17 05:00:55;;;;;;;9.07;7.47;;;;;;;15.16;60.50;95164.56;5117292;28;20199;-64
2022/05/17 05:03:22;;;;;;;8.98;7.10;;;;;;;15.21;60.30;95160.63;5116230;28;20212;-64
2022/05/17 05:05:50;;;;;;;10.35;7.93;;;;;;;15.24;60.23;95159.88;5115560;28;20227;-64
2022/05/17 05:08:17;;;;;;;8.90;6.68;;;;;;;15.33;59.71;95165.16;5116267;28;20196;-64
2022/05/17 05:10:45;;;;;;;7.75;6.90;;;;;;;15.37;59.64;95161.22;5116887;28;20249;-64
2022/05/17 05:13:14;;;;;;;7.40;6.60;;;;;;;15.32;60.73;95167.13;5116829;28;20180;-64
2022/05/17 05:15:41;;;;;;;8.80;6.20;;;;;;;15.26;60.56;95174.19;5116049;28;20202;-64
2022/05/17 05:18:08;;;;;;;7.00;6.40;;;;;;;15.22;60.77;95167.81;5116992;28;20184;-65
2022/05/17 05:20:35;;;;;;;10.50;8.05;;;;;;;15.27;59.31;95167.47;5116016;28;20203;-64
2022/05/17 05:23:04;;;;;;;7.90;6.93;;;;;;;15.35;59.47;95157.22;5116410;28;20619;-64
2022/05/17 05:25:30;;;;;;;10.27;7.15;;;;;;;15.40;60.24;95163.25;5116093;28;20191;-65
2022/05/17 05:27:57;;;;;;;7.63;6.90;;;;;;;15.43;59.16;95161.66;5115999;28;20199;-66
2022/05/17 05:30:24;;;;;;;8.73;7.00;;;;;;;15.45;59.99;95162.09;5116680;28;20188;-66
2022/05/17 05:32:51;;;;;;;8.23;7.28;;;;;;;15.48;60.06;95163.31;5116015;28;20531;-66
2022/05/17 05:35:21;;;;;;;10.10;8.20;;;;;;;15.51;60.22;95171.69;5116836;28;20180;-66
2022/05/17 05:37:48;;;;;;;10.68;7.80;;;;;;;15.57;60.59;95161.78;5116305;28;20180;-66
2022/05/17 05:40:16;;;;;;;9.00;7.97;;;;;;;15.61;60.77;95164.59;5116493;28;20180;-65
2022/05/17 05:42:44;;;;;;;10.05;8.25;;;;;;;15.65;60.86;95171.03;5116410;28;20211;-65
2022/05/17 05:45:12;;;;;;;10.68;9.65;;;;;;;15.71;60.42;95169.50;5116543;28;20187;-65
2022/05/17 05:47:40;;;;;;;18.30;9.55;;;;;;;15.76;60.73;95158.03;5115485;28;20195;-65
2022/05/17 05:50:08;;;;;;;13.23;10.80;;;;;;;15.83;60.33;95163.66;5116308;28;20279;-65
2022/05/17 05:52:35;;;;;;;14.23;12.80;;;;;;;16.01;59.53;95163.81;5115315;28;20209;-65
2022/05/17 05:55:02;;;;;;;15.52;12.90;;;;;;;16.13;59.08;95163.50;5115800;28;20194;-65
2022/05/17 05:57:31;;;;;;;13.00;10.82;;;;;;;16.24;59.10;95160.78;5115775;28;20196;-65
2022/05/17 05:59:58;;;;;;;11.30;10.23;;;;;;;16.37;58.77;95166.81;5115936;28;20615;-65
2022/05/17 06:02:25;;;;;;;13.55;10.73;;;;;;;16.47;58.79;95163.31;5115735;28;20210;-65
2022/05/17 06:04:52;;;;;;;11.23;10.13;;;;;;;16.55;58.44;95162.16;5115416;28;20627;-65
2022/05/17 06:07:19;;;;;;;12.05;10.85;;;;;;;16.58;58.27;95157.81;5116141;28;20489;-65
2022/05/17 06:09:45;;;;;;;11.80;10.57;;;;;;;16.63;58.14;95165.00;5115040;28;20615;-69
2022/05/17 06:12:12;;;;;;;11.55;10.05;;;;;;;16.65;57.81;95162.63;5115086;28;20202;-66
2022/05/17 06:14:41;;;;;;;10.05;9.10;;;;;;;16.65;57.83;95162.63;5115625;28;20614;-65
2022/05/17 06:17:08;;;;;;;13.38;8.45;;;;;;;16.60;57.75;95166.59;5115127;28;20223;-66
2022/05/17 06:19:35;;;;;;;10.05;7.82;;;;;;;16.58;57.50;95163.38;5114768;28;20199;-66
2022/05/17 06:22:03;;;;;;;10.30;8.27;;;;;;;16.61;57.35;95168.97;5115089;28;20207;-66
2022/05/17 06:24:30;;;;;;;12.05;11.05;;;;;;;16.61;57.27;95162.59;5114935;28;20223;-66
2022/05/17 06:26:57;;;;;;;9.95;8.25;;;;;;;16.64;57.40;95159.03;5115914;28;20184;-66
2022/05/17 06:29:24;;;;;;;10.18;8.20;;;;;;;16.67;56.85;95158.28;5116018;28;20180;-66
2022/05/17 06:31:52;;;;;;;8.48;7.65;;;;;;;16.69;56.49;95158.66;5115660;28;20596;-66
2022/05/17 06:34:20;;;;;;;11.57;8.15;;;;;;;16.75;56.71;95167.47;5115859;28;20184;-66
2022/05/17 06:36:47;;;;;;;8.95;7.57;;;;;;;16.78;56.70;95166.72;5115987;28;20191;-66
2022/05/17 06:39:14;;;;;;;9.35;7.15;;;;;;;16.82;56.16;95161.94;5115529;28;20211;-66
2022/05/17 06:41:40;;;;;;;7.40;6.60;;;;;;;16.85;56.09;95161.19;5114883;28;20231;-66
2022/05/17 06:44:07;;;;;;;7.97;7.18;;;;;;;16.89;56.29;95156.41;5114353;28;20216;-66
2022/05/17 06:46:34;;;;;;;7.60;6.90;;;;;;;16.93;56.22;95148.06;5115532;28;20176;-67
2022/05/17 06:49:02;;;;;;;7.78;6.97;;;;;;;16.99;56.28;95155.66;5114870;28;20200;-66
2022/05/17 06:51:29;;;;;;;8.25;7.18;;;;;;;17.03;55.89;95144.50;5115479;28;20192;-66
2022/05/17 06:53:56;;;;;;;10.27;7.25;;;;;;;17.05;56.10;95144.91;5115601;28;20180;-66
2022/05/17 06:56:23;;;;;;;8.38;7.65;;;;;;;17.11;56.45;95148.94;5115764;28;20200;-66
2022/05/17 06:58:49;;;;;;;9.10;7.60;;;;;;;17.16;55.91;95154.13;5115947;28;20188;-66
2022/05/17 07:01:16;;;;;;;7.55;6.70;;;;;;;17.24;55.23;95147.34;5115048;28;20215;-66
2022/05/17 07:03:43;;;;;;;8.52;7.50;;;;;;;17.28;55.26;95144.59;5114227;28;20216;-66
2022/05/17 07:06:11;;;;;;;8.10;7.28;;;;;;;17.29;54.86;95144.22;5114199;28;20206;-66
2022/05/17 07:08:38;;;;;;;9.13;7.38;;;;;;;17.31;55.28;95149.38;5114474;28;20200;-66
2022/05/17 07:13:49;;;;;;;10.10;7.32;;;;;;;17.45;55.07;95146.63;5114798;28;20187;-66
2022/05/17 07:16:16;;;;;;;10.80;7.88;;;;;;;17.48;55.23;95139.47;5114424;28;20195;-66
2022/05/17 07:18:43;;;;;;;9.45;7.60;;;;;;;17.54;55.69;95135.91;5115279;28;20195;-66
2022/05/17 07:21:12;;;;;;;8.40;7.47;;;;;;;17.57;55.40;95142.66;5115335;28;20249;-66
2022/05/17 07:23:40;;;;;;;9.73;7.72;;;;;;;17.58;54.39;95132.31;5114137;28;20336;-66
2022/05/17 07:26:08;;;;;;;9.35;8.45;;;;;;;17.58;54.44;95132.31;5114338;28;20596;-66
2022/05/17 07:28:39;;;;;;;9.02;8.23;;;;;;;17.75;54.43;95135.13;5116028;28;20191;-66
2022/05/17 07:31:06;;;;;;;9.43;8.13;;;;;;;17.84;54.48;95128.38;5118721;28;20195;-66
2022/05/17 07:33:33;;;;;;;9.45;8.10;;;;;;;17.94;54.22;95122.00;5119511;28;20580;-66
2022/05/17 07:36:01;;;;;;;10.05;8.32;;;;;;;17.99;53.93;95130.75;5117915;28;20191;-66
2022/05/17 07:38:29;;;;;;;11.63;7.90;;;;;;;18.05;54.90;95117.22;5118844;28;20196;-66
2022/05/17 07:40:56;;;;;;;8.20;7.32;;;;;;;18.10;54.42;95127.97;5118436;28;20670;-66
2022/05/17 07:43:23;;;;;;;9.63;7.25;;;;;;;18.14;55.32;95120.38;5117837;28;20212;-66
2022/05/17 07:45:50;;;;;;;11.48;7.63;;;;;;;18.20;55.53;95115.19;5118164;28;20199;-66
2022/05/17 07:48:18;;;;;;;12.95;11.65;;;;;;;18.28;55.55;95111.97;5118602;28;20196;-66
2022/05/17 07:50:44;;;;;;;14.27;12.48;;;;;;;18.35;55.60;95116.75;5118789;28;20191;-66
2022/05/17 07:53:13;;;;;;;14.60;12.18;;;;;;;18.42;55.54;95105.56;5118367;28;20173;-66
2022/05/17 07:55:42;;;;;;;15.25;12.15;;;;;;;18.45;55.48;95101.19;5117533;28;20298;-66
2022/05/17 07:58:10;;;;;;;13.73;12.32;;;;;;;18.62;55.11;95103.09;5118510;28;20199;-66
2022/05/17 08:00:38;;;;;;;14.70;12.52;;;;;;;18.77;54.70;95103.88;5118489;28;20190;-66
2022/05/17 08:03:05;;;;;;;11.88;10.65;;;;;;;18.79;54.66;95097.91;5118469;28;20211;-66
2022/05/17 08:05:32;;;;;;;10.63;9.63;;;;;;;18.82;54.76;95097.88;5118172;28;20207;-65
2022/05/17 08:07:59;;;;;;;13.15;9.77;;;;;;;18.87;52.78;95094.66;5118434;28;20200;-66
2022/05/17 08:10:26;;;;;;;11.20;9.00;;;;;;;18.94;53.77;95093.84;5117385;28;20522;-66
2022/05/17 08:12:54;;;;;;;11.18;9.43;;;;;;;19.17;52.76;95096.09;5117930;28;20563;-66
2022/05/17 08:15:23;;;;;;;11.20;9.52;;;;;;;19.38;52.48;95089.59;5117676;28;20191;-66
2022/05/17 08:17:49;;;;;;;9.20;8.30;;;;;;;19.47;52.85;95084.34;5118223;28;20180;-66
2022/05/17 08:20:18;;;;;;;9.70;8.70;;;;;;;19.55;53.64;95085.91;5117160;28;20195;-66
2022/05/17 08:22:46;;;;;;;11.05;9.60;;;;;;;19.45;52.31;95078.38;5116664;28;20199;-65
2022/05/17 08:28:00;;;;;;;9.23;7.60;;;;;;;19.47;52.87;95079.56;5117708;28;20259;-66
2022/05/17 08:30:28;;;;;;;10.02;7.68;;;;;;;19.59;52.81;95081.06;5116785;28;20204;-66
2022/05/17 08:33:16;;;;;;;8.90;7.45;;;;;;;19.96;51.97;95074.78;5116907;28;20200;-66
2022/05/17 08:35:46;;;;;;;8.20;7.38;;;;;;;20.18;50.58;95075.38;5117020;28;20203;-66
2022/05/17 08:38:16;;;;;;;10.27;6.75;;;;;;;20.41;50.09;95077.56;5116517;28;20225;-66
2022/05/17 08:40:55;;;;;;;8.55;7.05;;;;;;;20.52;49.37;95071.09;5117148;28;20240;-66
2022/05/17 08:43:26;;;;;;;7.20;6.50;;;;;;;20.63;49.75;95068.94;5117754;28;20545;-66
2022/05/17 08:46:12;;;;;;;6.35;5.18;;;;;;;20.59;47.23;95071.00;5116830;28;20622;-66
2022/05/17 08:48:49;;;;;;;4.10;3.80;;;;;;;20.82;46.90;95070.31;5102774;28;20199;-66
2022/05/17 08:51:26;;;;;;;6.93;4.43;;;;;;;20.97;45.66;95068.13;5116748;28;20198;-66
2022/05/17 08:53:54;;;;;;;4.28;3.75;;;;;;;21.09;42.06;95073.16;5116315;28;20195;-66
2022/05/17 08:56:21;;;;;;;4.03;3.60;;;;;;;21.08;43.79;95072.38;5116398;28;20203;-66
2022/05/17 08:58:52;;;;;;;4.82;3.78;;;;;;;20.93;41.35;95076.59;5117418;28;20190;-66
2022/05/17 09:01:24;;;;;;;4.32;3.92;;;;;;;20.83;42.91;95063.50;5116376;28;20188;-66
2022/05/17 09:04:02;;;;;;;4.82;4.20;;;;;;;20.82;44.56;95065.50;5116169;28;20256;-66
2022/05/17 09:06:33;;;;;;;5.57;3.65;;;;;;;20.99;43.33;95062.88;5116141;28;20195;-66
2022/05/17 09:09:04;;;;;;;4.32;3.53;;;;;;;21.11;43.52;95056.72;5115985;28;20206;-66
2022/05/17 09:11:35;;;;;;;4.15;3.75;;;;;;;21.21;42.77;95052.97;5116277;28;20248;-66
2022/05/17 09:14:07;;;;;;;4.78;3.65;;;;;;;21.26;43.17;95057.31;5116338;28;20192;-66
2022/05/17 09:16:37;;;;;;;4.28;3.65;;;;;;;21.24;41.58;95054.94;5116290;28;20231;-65
2022/05/17 09:19:04;;;;;;;7.25;4.30;;;;;;;21.33;41.81;95043.19;5116276;28;20215;-65
2022/05/17 09:21:34;;;;;;;5.75;4.00;;;;;;;21.49;42.88;95054.59;5116993;28;20184;-66
2022/05/17 09:24:05;;;;;;;3.10;2.80;;;;;;;21.58;39.71;95052.06;5116979;28;20207;-66
2022/05/17 09:26:32;;;;;;;3.75;3.13;;;;;;;21.65;39.26;95053.16;5116821;28;20195;-66
2022/05/17 09:29:01;;;;;;;3.83;3.40;;;;;;;21.93;38.69;95046.28;5116054;28;20191;-66
2022/05/17 09:31:32;;;;;;;4.22;3.47;;;;;;;22.18;41.79;95046.66;5116816;28;20184;-66
2022/05/17 09:34:02;;;;;;;5.30;3.45;;;;;;;22.43;39.80;95034.97;5115874;28;20576;-66
2022/05/17 09:36:33;;;;;;;3.78;3.47;;;;;;;22.56;39.95;95026.69;5116224;28;20662;-66
2022/05/17 09:39:01;;;;;;;3.55;3.25;;;;;;;22.81;40.09;95026.97;5116529;28;20279;-66
2022/05/17 09:41:35;;;;;;;3.97;3.25;;;;;;;22.85;37.08;95026.09;5116257;28;20248;-66
2022/05/17 09:44:05;;;;;;;3.58;3.28;;;;;;;22.86;36.99;95019.25;5116473;28;20213;-66
2022/05/17 09:46:35;;;;;;;5.93;3.67;;;;;;;22.99;37.91;95015.38;5115424;28;20227;-66
2022/05/17 09:54:43;;;;;;;2.80;2.47;;;;;;;23.15;34.03;95019.44;5116036;28;20172;-66
2022/05/17 09:57:19;;;;;;;3.55;2.65;;;;;;;23.23;33.55;95012.44;5116574;28;20207;-66
2022/05/17 09:59:47;;;;;;;2.90;2.38;;;;;;;23.13;32.60;95005.03;5116156;28;20195;-66
2022/05/17 10:02:33;;;;;;;3.97;2.90;;;;;;;23.16;33.70;95002.13;5115331;28;20195;-66
2022/05/17 10:05:00;;;;;;;5.55;3.90;;;;;;;23.23;34.64;94998.38;5115919;28;20253;-66
2022/05/17 10:07:30;;;;;;;2.70;2.50;;;;;;;23.26;33.94;94995.47;5116349;28;20183;-66
2022/05/17 10:09:57;;;;;;;2.80;2.60;;;;;;;23.14;32.96;95004.59;5115357;28;20195;-66
2022/05/17 10:12:30;;;;;;;3.08;2.70;;;;;;;23.23;33.16;94995.56;5115210;28;20196;-66
2022/05/17 10:15:01;;;;;;;2.70;2.50;;;;;;;23.20;32.71;94986.00;5115789;28;20199;-66
2022/05/17 10:17:35;;;;;;;2.78;2.58;;;;;;;23.25;34.33;94985.44;5115655;28;20180;-66
2022/05/17 10:20:04;;;;;;;2.78;2.58;;;;;;;23.57;34.73;94986.72;5114973;28;20194;-66
2022/05/17 10:22:35;;;;;;;2.35;2.22;;;;;;;23.71;33.11;94985.56;5115512;28;20180;-66
2022/05/17 10:25:04;;;;;;;2.90;2.58;;;;;;;23.77;33.91;94978.97;5115301;28;20211;-66
2022/05/17 10:27:34;;;;;;;2.67;2.47;;;;;;;23.81;33.31;94981.72;5115503;28;20187;-66
2022/05/17 10:30:04;;;;;;;4.75;3.10;;;;;;;23.84;33.42;94977.22;5115870;28;20176;-66
2022/05/17 10:32:35;;;;;;;3.20;2.90;;;;;;;24.11;35.62;94966.47;5115467;28;20525;-66
2022/05/17 10:35:07;;;;;;;4.15;2.80;;;;;;;24.25;34.79;94963.22;5114966;28;20191;-66
2022/05/17 10:37:39;;;;;;;5.30;3.10;;;;;;;24.46;34.72;94961.88;5114973;28;20210;-66
2022/05/17 10:40:09;;;;;;;4.25;2.90;;;;;;;24.52;34.01;94958.53;5114760;28;20200;-66
2022/05/17 10:42:37;;;;;;;2.88;2.67;;;;;;;24.47;31.85;94951.38;5114349;28;20313;-66
2022/05/17 10:45:06;;;;;;;3.65;3.05;;;;;;;24.39;33.20;94953.63;5115163;28;20203;-66
2022/05/17 10:47:47;;;;;;;3.50;3.20;;;;;;;24.39;34.32;94947.97;5115601;28;20188;-66
2022/05/17 10:50:27;;;;;;;3.60;3.15;;;;;;;24.44;35.03;94943.84;5115576;28;20206;-66
2022/05/17 10:53:14;;;;;;;4.28;3.15;;;;;;;24.73;35.72;94941.75;5115358;28;20518;-66
2022/05/17 10:55:47;;;;;;;3.40;3.20;;;;;;;24.72;34.46;94942.19;5110889;28;20211;-66
2022/05/17 10:58:23;;;;;;;4.53;3.25;;;;;;;24.81;33.74;94931.06;5114842;28;20199;-66
2022/05/17 11:00:57;;;;;;;3.60;3.17;;;;;;;24.86;35.24;94933.31;5115205;28;20249;-66
2022/05/17 11:03:53;;;;;;;4.57;3.25;;;;;;;24.98;35.70;94934.56;5115348;28;20536;-66
2022/05/17 11:06:27;;;;;;;4.57;2.95;;;;;;;25.07;33.58;94914.94;5118565;28;20563;-66
2022/05/17 11:09:02;;;;;;;3.30;3.00;;;;;;;25.02;33.68;94925.97;5118770;28;20191;-66
2022/05/17 11:11:50;;;;;;;3.03;2.83;;;;;;;24.96;32.87;94918.09;5118205;28;20202;-66
2022/05/17 11:14:23;;;;;;;3.05;2.85;;;;;;;25.11;33.40;94906.38;5119408;28;20195;-66
2022/05/17 11:16:57;;;;;;;3.30;3.00;;;;;;;25.24;34.09;94906.38;5119336;28;20230;-66
2022/05/17 11:19:31;;;;;;;3.60;3.30;;;;;;;25.32;33.68;94904.91;5119027;28;20184;-68
2022/05/17 11:22:02;;;;;;;3.75;3.20;;;;;;;25.33;34.35;94898.81;5118527;28;20229;-66
2022/05/17 11:24:54;;;;;;;3.63;3.28;;;;;;;25.30;34.82;94896.09;5118922;28;20208;-66
2022/05/17 11:27:32;;;;;;;3.03;2.72;;;;;;;25.37;32.63;94893.81;5119012;28;20195;-66
2022/05/17 11:30:19;;;;;;;3.08;2.78;;;;;;;25.37;33.87;94887.41;5118315;28;20192;-66
2022/05/17 11:33:27;;;;;;;3.45;2.90;;;;;;;25.63;33.71;94874.78;5119155;28;20188;-66
2022/05/17 11:35:57;;;;;;;3.40;2.90;;;;;;;25.81;32.80;94882.69;5071496;28;20533;-66
2022/05/17 11:38:49;;;;;;;3.65;2.80;;;;;;;25.81;32.45;94882.69;5118950;28;20208;-66
2022/05/17 11:41:24;;;;;;;3.17;2.88;;;;;;;25.79;32.53;94875.94;5115298;28;20243;-66
2022/05/17 11:44:16;;;;;;;2.85;2.33;;;;;;;25.76;33.37;94871.94;5117668;28;20252;-66
2022/05/17 11:46:47;;;;;;;4.00;3.30;;;;;;;25.77;31.63;94864.25;5103508;28;20200;-66
2022/05/17 11:49:41;;;;;;;3.65;3.35;;;;;;;25.72;33.98;94873.31;5118679;28;20596;-66
2022/05/17 11:52:37;;;;;;;3.70;3.40;;;;;;;25.78;33.94;94861.00;5118786;28;20194;-66